N777F HRYR-HAAB
Flight info
| Callsign | N777F |
|---|---|
| Flight time | 1h 55m |
| Altitude | 35000 |
| Route | KNM DCT NN DCT SV DCT LOV DCT AM DCT SHALA |
| Aircraft | B77L/H-SDE1E2E3FGHIJ2J3J4J5M1RWXY/LB1D1 |
Departure
| Time | 2026-05-07 11:41 |
|---|---|
| Airport | Kigali International Airport (HRYR) |
Arrival
| Time | 2026-05-07 13:37 |
|---|---|
| Airport | Addis Ababa Bole International Airport (HAAB) |
| Time | Latitude | Longitude | Altitude | Speed | Heading |
|---|---|---|---|---|---|
| 2026-05-07 09:55 | -1.96568 | 30.13600 | 4906 ft | 0 kts | 50° |
| 2026-05-07 11:30 | -1.96570 | 30.13597 | 4906 ft | 0 kts | 44° |
| 2026-05-07 11:30 | -1.96578 | 30.13591 | 4892 ft | 1 kts | 25° |
| 2026-05-07 11:31 | -1.96582 | 30.13589 | 4893 ft | 1 kts | 61° |
| 2026-05-07 11:31 | -1.96584 | 30.13584 | 4895 ft | 1 kts | 36° |
| 2026-05-07 11:31 | -1.96589 | 30.13580 | 4896 ft | 1 kts | 7° |
| 2026-05-07 11:31 | -1.96595 | 30.13579 | 4900 ft | 1 kts | 338° |
| 2026-05-07 11:32 | -1.96605 | 30.13585 | 4896 ft | 1 kts | 281° |
| 2026-05-07 11:32 | -1.96606 | 30.13588 | 4896 ft | 0 kts | 279° |
| 2026-05-07 11:37 | -1.96605 | 30.13581 | 4898 ft | 3 kts | 278° |
| 2026-05-07 11:37 | -1.96603 | 30.13553 | 4906 ft | 4 kts | 273° |
| 2026-05-07 11:37 | -1.96600 | 30.13500 | 4907 ft | 10 kts | 273° |
| 2026-05-07 11:37 | -1.96594 | 30.13409 | 4907 ft | 16 kts | 274° |
| 2026-05-07 11:38 | -1.96580 | 30.13287 | 4904 ft | 19 kts | 279° |
| 2026-05-07 11:38 | -1.96556 | 30.13154 | 4902 ft | 13 kts | 279° |
| 2026-05-07 11:38 | -1.96545 | 30.13079 | 4899 ft | 12 kts | 278° |
| 2026-05-07 11:38 | -1.96567 | 30.13017 | 4903 ft | 11 kts | 214° |
| 2026-05-07 11:39 | -1.96649 | 30.12961 | 4898 ft | 17 kts | 214° |
| 2026-05-07 11:39 | -1.96676 | 30.12879 | 4897 ft | 16 kts | 277° |
| 2026-05-07 11:39 | -1.96656 | 30.12750 | 4900 ft | 21 kts | 279° |
| 2026-05-07 11:39 | -1.96632 | 30.12606 | 4899 ft | 18 kts | 278° |
| 2026-05-07 11:40 | -1.96627 | 30.12485 | 4905 ft | 15 kts | 249° |
| 2026-05-07 11:40 | -1.96641 | 30.12413 | 4901 ft | 8 kts | 305° |
| 2026-05-07 11:40 | -1.96608 | 30.12428 | 4901 ft | 6 kts | 77° |
| 2026-05-07 11:40 | -1.96612 | 30.12492 | 4899 ft | 14 kts | 98° |
| 2026-05-07 11:41 | -1.96650 | 30.12725 | 4898 ft | 66 kts | 100° |
| 2026-05-07 11:41 | -1.96777 | 30.13445 | 4913 ft | 139 kts | 99° |
| 2026-05-07 11:41 | -1.96988 | 30.14583 | 4966 ft | 189 kts | 103° |
| 2026-05-07 11:41 | -1.97242 | 30.15881 | 5647 ft | 193 kts | 103° |
| 2026-05-07 11:42 | -1.97506 | 30.17193 | 6403 ft | 193 kts | 103° |
| 2026-05-07 11:42 | -1.97800 | 30.18517 | 6899 ft | 199 kts | 103° |
| 2026-05-07 11:42 | -1.98097 | 30.19910 | 7320 ft | 210 kts | 101° |
| 2026-05-07 11:42 | -1.98115 | 30.21381 | 7811 ft | 217 kts | 79° |
| 2026-05-07 11:43 | -1.97541 | 30.22788 | 8220 ft | 223 kts | 58° |
| 2026-05-07 11:43 | -1.96576 | 30.23997 | 8625 ft | 222 kts | 51° |
| 2026-05-07 11:43 | -1.95557 | 30.25149 | 9246 ft | 220 kts | 50° |
| 2026-05-07 11:43 | -1.94591 | 30.26302 | 9958 ft | 216 kts | 52° |
| 2026-05-07 11:44 | -1.93605 | 30.27466 | 10401 ft | 224 kts | 51° |
| 2026-05-07 11:44 | -1.92584 | 30.28672 | 10827 ft | 230 kts | 51° |
| 2026-05-07 11:44 | -1.91565 | 30.29933 | 11319 ft | 235 kts | 53° |
| 2026-05-07 11:44 | -1.90589 | 30.31250 | 11898 ft | 237 kts | 56° |
| 2026-05-07 11:45 | -1.89683 | 30.32629 | 12481 ft | 238 kts | 59° |
| 2026-05-07 11:45 | -1.88636 | 30.33935 | 12711 ft | 253 kts | 34° |
| 2026-05-07 11:45 | -1.86995 | 30.34720 | 12875 ft | 273 kts | 24° |
| 2026-05-07 11:45 | -1.85211 | 30.35574 | 13019 ft | 296 kts | 29° |
| 2026-05-07 11:46 | -1.83399 | 30.36676 | 13423 ft | 310 kts | 34° |
| 2026-05-07 11:46 | -1.81623 | 30.37961 | 13879 ft | 324 kts | 38° |
| 2026-05-07 11:46 | -1.79807 | 30.39448 | 13990 ft | 349 kts | 41° |
| 2026-05-07 11:46 | -1.77942 | 30.41120 | 14121 ft | 372 kts | 43° |
| 2026-05-07 11:47 | -1.76021 | 30.42950 | 14400 ft | 389 kts | 45° |
| 2026-05-07 11:47 | -1.74083 | 30.44866 | 14996 ft | 394 kts | 46° |
| 2026-05-07 11:47 | -1.72143 | 30.46825 | 15631 ft | 400 kts | 46° |
| 2026-05-07 11:47 | -1.70185 | 30.48820 | 16251 ft | 404 kts | 46° |
| 2026-05-07 11:48 | -1.68217 | 30.50834 | 16923 ft | 408 kts | 46° |
| 2026-05-07 11:48 | -1.66224 | 30.52876 | 17580 ft | 411 kts | 46° |
| 2026-05-07 11:48 | -1.64222 | 30.54926 | 18237 ft | 415 kts | 46° |
| 2026-05-07 11:48 | -1.62188 | 30.57007 | 18735 ft | 420 kts | 46° |
| 2026-05-07 11:49 | -1.60143 | 30.59098 | 19301 ft | 423 kts | 46° |
| 2026-05-07 11:49 | -1.58074 | 30.61214 | 19821 ft | 427 kts | 46° |
| 2026-05-07 11:49 | -1.55993 | 30.63341 | 20345 ft | 431 kts | 46° |
| 2026-05-07 11:49 | -1.53887 | 30.65494 | 20870 ft | 434 kts | 46° |
| 2026-05-07 11:50 | -1.51770 | 30.67657 | 21378 ft | 438 kts | 46° |
| 2026-05-07 11:50 | -1.49631 | 30.69843 | 21894 ft | 441 kts | 46° |
| 2026-05-07 11:50 | -1.47478 | 30.72043 | 22362 ft | 446 kts | 46° |
| 2026-05-07 11:50 | -1.45305 | 30.74263 | 22916 ft | 447 kts | 46° |
| 2026-05-07 11:51 | -1.43152 | 30.76529 | 23302 ft | 453 kts | 48° |
| 2026-05-07 11:51 | -1.41044 | 30.78880 | 23779 ft | 455 kts | 49° |
| 2026-05-07 11:51 | -1.38953 | 30.81267 | 24123 ft | 459 kts | 49° |
| 2026-05-07 11:51 | -1.36853 | 30.83677 | 24546 ft | 461 kts | 49° |
| 2026-05-07 11:52 | -1.34732 | 30.86106 | 24861 ft | 465 kts | 50° |
| 2026-05-07 11:52 | -1.32623 | 30.88508 | 25231 ft | 468 kts | 49° |
| 2026-05-07 11:52 | -1.30464 | 30.90955 | 25562 ft | 471 kts | 49° |
| 2026-05-07 11:52 | -1.28285 | 30.93416 | 25932 ft | 474 kts | 49° |
| 2026-05-07 11:53 | -1.26089 | 30.95891 | 26285 ft | 477 kts | 49° |
| 2026-05-07 11:53 | -1.23878 | 30.98379 | 26617 ft | 481 kts | 49° |
| 2026-05-07 11:53 | -1.21654 | 31.00882 | 26971 ft | 483 kts | 49° |
| 2026-05-07 11:53 | -1.19415 | 31.03402 | 27343 ft | 486 kts | 49° |
| 2026-05-07 11:54 | -1.17168 | 31.05932 | 27670 ft | 488 kts | 49° |
| 2026-05-07 11:54 | -1.14904 | 31.08481 | 27999 ft | 491 kts | 49° |
| 2026-05-07 11:54 | -1.12629 | 31.11044 | 28318 ft | 494 kts | 49° |
| 2026-05-07 11:54 | -1.10346 | 31.13615 | 28666 ft | 496 kts | 49° |
| 2026-05-07 11:55 | -1.08049 | 31.16201 | 29004 ft | 498 kts | 49° |
| 2026-05-07 11:55 | -1.05741 | 31.18800 | 29316 ft | 501 kts | 49° |
| 2026-05-07 11:55 | -1.03423 | 31.21410 | 29599 ft | 504 kts | 49° |
| 2026-05-07 11:55 | -1.01086 | 31.24041 | 29870 ft | 507 kts | 49° |
| 2026-05-07 11:56 | -0.98746 | 31.26677 | 30193 ft | 507 kts | 49° |
| 2026-05-07 11:56 | -0.97195 | 31.28423 | 30406 ft | 508 kts | 49° |
| 2026-05-07 11:56 | -0.94058 | 31.31955 | 30842 ft | 508 kts | 48° |
| 2026-05-07 11:56 | -0.92505 | 31.33703 | 31057 ft | 508 kts | 48° |
| 2026-05-07 11:57 | -0.90163 | 31.36341 | 31449 ft | 507 kts | 48° |
| 2026-05-07 11:57 | -0.87827 | 31.38970 | 31882 ft | 505 kts | 48° |
| 2026-05-07 11:57 | -0.85494 | 31.41597 | 32243 ft | 505 kts | 48° |
| 2026-05-07 11:57 | -0.83169 | 31.44213 | 32732 ft | 502 kts | 48° |
| 2026-05-07 11:58 | -0.80855 | 31.46819 | 33172 ft | 500 kts | 48° |
| 2026-05-07 11:58 | -0.78550 | 31.49414 | 33591 ft | 499 kts | 48° |
| 2026-05-07 11:58 | -0.76245 | 31.52009 | 33943 ft | 499 kts | 47° |
| 2026-05-07 11:58 | -0.73938 | 31.54607 | 34203 ft | 500 kts | 47° |
| 2026-05-07 11:59 | -0.71631 | 31.57203 | 34552 ft | 499 kts | 47° |
| 2026-05-07 11:59 | -0.69334 | 31.59790 | 34910 ft | 497 kts | 47° |
| 2026-05-07 11:59 | -0.67043 | 31.62369 | 34996 ft | 497 kts | 47° |
| 2026-05-07 12:00 | -0.62454 | 31.67534 | 34956 ft | 498 kts | 47° |
| 2026-05-07 12:00 | -0.57861 | 31.72705 | 34964 ft | 497 kts | 47° |
| 2026-05-07 12:01 | -0.53274 | 31.77867 | 34923 ft | 497 kts | 47° |
| 2026-05-07 12:01 | -0.48690 | 31.83028 | 34917 ft | 496 kts | 48° |
| 2026-05-07 12:02 | -0.44115 | 31.88178 | 34912 ft | 495 kts | 47° |
| 2026-05-07 12:02 | -0.39547 | 31.93318 | 34913 ft | 494 kts | 47° |
| 2026-05-07 12:03 | -0.34983 | 31.98456 | 34909 ft | 494 kts | 47° |
| 2026-05-07 12:03 | -0.30450 | 32.03557 | 34908 ft | 494 kts | 47° |
| 2026-05-07 12:04 | -0.25884 | 32.08696 | 34913 ft | 494 kts | 48° |
| 2026-05-07 12:04 | -0.21320 | 32.13834 | 34909 ft | 494 kts | 48° |
| 2026-05-07 12:05 | -0.16758 | 32.18968 | 34907 ft | 494 kts | 48° |
| 2026-05-07 12:05 | -0.12200 | 32.24099 | 34911 ft | 494 kts | 48° |
| 2026-05-07 12:06 | -0.07642 | 32.29229 | 34911 ft | 494 kts | 47° |
| 2026-05-07 12:06 | -0.03084 | 32.34361 | 34909 ft | 494 kts | 48° |
| 2026-05-07 12:07 | 0.01472 | 32.39489 | 35043 ft | 494 kts | 48° |
| 2026-05-07 12:07 | 0.06253 | 32.44406 | 35049 ft | 493 kts | 40° |
| 2026-05-07 12:08 | 0.11772 | 32.48479 | 35057 ft | 493 kts | 34° |
| 2026-05-07 12:08 | 0.17416 | 32.52384 | 35018 ft | 494 kts | 34° |
| 2026-05-07 12:09 | 0.23054 | 32.56317 | 34980 ft | 494 kts | 34° |
| 2026-05-07 12:09 | 0.28675 | 32.60275 | 34939 ft | 495 kts | 34° |
| 2026-05-07 12:10 | 0.34300 | 32.64246 | 34897 ft | 495 kts | 34° |
| 2026-05-07 12:10 | 0.39925 | 32.68217 | 34898 ft | 495 kts | 34° |
| 2026-05-07 12:11 | 0.45553 | 32.72187 | 34895 ft | 495 kts | 34° |
| 2026-05-07 12:11 | 0.51184 | 32.76160 | 34896 ft | 495 kts | 34° |
| 2026-05-07 12:12 | 0.56813 | 32.80131 | 34894 ft | 495 kts | 34° |
| 2026-05-07 12:12 | 0.62445 | 32.84104 | 34890 ft | 495 kts | 34° |
| 2026-05-07 12:13 | 0.68029 | 32.88044 | 34890 ft | 494 kts | 34° |
| 2026-05-07 12:13 | 0.73633 | 32.91997 | 34885 ft | 492 kts | 34° |
| 2026-05-07 12:14 | 0.79221 | 32.95939 | 34867 ft | 491 kts | 34° |
| 2026-05-07 12:14 | 0.84791 | 32.99869 | 34873 ft | 489 kts | 34° |
| 2026-05-07 12:15 | 0.90341 | 33.03786 | 34875 ft | 488 kts | 34° |
| 2026-05-07 12:15 | 0.95890 | 33.07701 | 34874 ft | 488 kts | 34° |
| 2026-05-07 12:16 | 1.01431 | 33.11611 | 34874 ft | 488 kts | 34° |
| 2026-05-07 12:16 | 1.06978 | 33.15525 | 34869 ft | 488 kts | 34° |
| 2026-05-07 12:17 | 1.12530 | 33.19443 | 34870 ft | 489 kts | 34° |
| 2026-05-07 12:17 | 1.18088 | 33.23366 | 34865 ft | 490 kts | 34° |
| 2026-05-07 12:18 | 1.23656 | 33.27296 | 34863 ft | 490 kts | 34° |
| 2026-05-07 12:18 | 1.29229 | 33.31230 | 34857 ft | 491 kts | 34° |
| 2026-05-07 12:19 | 1.34805 | 33.35165 | 34861 ft | 491 kts | 34° |
| 2026-05-07 12:19 | 1.40390 | 33.39107 | 34856 ft | 491 kts | 34° |
| 2026-05-07 12:20 | 1.45974 | 33.43050 | 34879 ft | 492 kts | 34° |
| 2026-05-07 12:20 | 1.51557 | 33.46992 | 34919 ft | 492 kts | 34° |
| 2026-05-07 12:21 | 1.57150 | 33.50941 | 34960 ft | 492 kts | 34° |
| 2026-05-07 12:21 | 1.62733 | 33.54885 | 35002 ft | 491 kts | 34° |
| 2026-05-07 12:22 | 1.68314 | 33.58832 | 35018 ft | 491 kts | 36° |
| 2026-05-07 12:22 | 1.73381 | 33.63409 | 35024 ft | 492 kts | 47° |
| 2026-05-07 12:23 | 1.77543 | 33.68784 | 35033 ft | 492 kts | 54° |
| 2026-05-07 12:23 | 1.81407 | 33.74438 | 34979 ft | 493 kts | 55° |
| 2026-05-07 12:23 | 1.83338 | 33.77269 | 34851 ft | 493 kts | 55° |
| 2026-05-07 12:24 | 1.85274 | 33.80092 | 34852 ft | 493 kts | 54° |
| 2026-05-07 12:24 | 1.89168 | 33.85730 | 34852 ft | 493 kts | 54° |
| 2026-05-07 12:25 | 1.93074 | 33.91359 | 34849 ft | 493 kts | 54° |
| 2026-05-07 12:25 | 1.96983 | 33.96989 | 34848 ft | 493 kts | 54° |
| 2026-05-07 12:26 | 2.00887 | 34.02616 | 34849 ft | 493 kts | 54° |
| 2026-05-07 12:26 | 2.04791 | 34.08244 | 34852 ft | 493 kts | 54° |
| 2026-05-07 12:27 | 2.08694 | 34.13872 | 34851 ft | 492 kts | 54° |
| 2026-05-07 12:27 | 2.12596 | 34.19499 | 34858 ft | 493 kts | 54° |
| 2026-05-07 12:28 | 2.16501 | 34.25131 | 34848 ft | 493 kts | 54° |
| 2026-05-07 12:28 | 2.20406 | 34.30764 | 34853 ft | 493 kts | 54° |
| 2026-05-07 12:29 | 2.24307 | 34.36391 | 34852 ft | 493 kts | 54° |
| 2026-05-07 12:29 | 2.28208 | 34.42019 | 34854 ft | 492 kts | 54° |
| 2026-05-07 12:30 | 2.32106 | 34.47644 | 34853 ft | 492 kts | 54° |
| 2026-05-07 12:30 | 2.36004 | 34.53268 | 34861 ft | 492 kts | 54° |
| 2026-05-07 12:31 | 2.39903 | 34.58895 | 34856 ft | 492 kts | 54° |
| 2026-05-07 12:31 | 2.43801 | 34.64522 | 34854 ft | 492 kts | 54° |
| 2026-05-07 12:32 | 2.47700 | 34.70150 | 34859 ft | 492 kts | 54° |
| 2026-05-07 12:32 | 2.51575 | 34.75745 | 34842 ft | 493 kts | 54° |
| 2026-05-07 12:33 | 2.57434 | 34.84204 | 34846 ft | 494 kts | 54° |
| 2026-05-07 12:33 | 2.61348 | 34.89856 | 34843 ft | 494 kts | 54° |
| 2026-05-07 12:34 | 2.65264 | 34.95513 | 34828 ft | 495 kts | 54° |
| 2026-05-07 12:34 | 2.69181 | 35.01171 | 34827 ft | 495 kts | 54° |
| 2026-05-07 12:35 | 2.73105 | 35.06839 | 34815 ft | 495 kts | 54° |
| 2026-05-07 12:35 | 2.77026 | 35.12506 | 34812 ft | 496 kts | 54° |
| 2026-05-07 12:36 | 2.80953 | 35.18180 | 34803 ft | 496 kts | 54° |
| 2026-05-07 12:36 | 2.84876 | 35.23851 | 34800 ft | 496 kts | 54° |
| 2026-05-07 12:37 | 2.88800 | 35.29523 | 34792 ft | 496 kts | 55° |
| 2026-05-07 12:37 | 2.92725 | 35.35198 | 34789 ft | 496 kts | 55° |
| 2026-05-07 12:38 | 2.96649 | 35.40872 | 34785 ft | 496 kts | 54° |
| 2026-05-07 12:38 | 3.00574 | 35.46549 | 34784 ft | 496 kts | 55° |
| 2026-05-07 12:39 | 3.04499 | 35.52228 | 34776 ft | 496 kts | 54° |
| 2026-05-07 12:39 | 3.08467 | 35.57882 | 34773 ft | 497 kts | 51° |
| 2026-05-07 12:40 | 3.13264 | 35.62829 | 34794 ft | 495 kts | 40° |
| 2026-05-07 12:40 | 3.18851 | 35.66850 | 34789 ft | 495 kts | 32° |
| 2026-05-07 12:41 | 3.24608 | 35.70638 | 34782 ft | 495 kts | 33° |
| 2026-05-07 12:41 | 3.30362 | 35.74446 | 34784 ft | 496 kts | 33° |
| 2026-05-07 12:42 | 3.36099 | 35.78284 | 34785 ft | 496 kts | 33° |
| 2026-05-07 12:42 | 3.40861 | 35.81484 | 34783 ft | 496 kts | 33° |
| 2026-05-07 12:43 | 3.46586 | 35.85335 | 34790 ft | 495 kts | 33° |
| 2026-05-07 12:43 | 3.53232 | 35.89803 | 34782 ft | 494 kts | 33° |
| 2026-05-07 12:44 | 3.58009 | 35.93014 | 34784 ft | 494 kts | 33° |
| 2026-05-07 12:44 | 3.63707 | 35.96844 | 34787 ft | 493 kts | 33° |
| 2026-05-07 12:45 | 3.69399 | 36.00671 | 34783 ft | 493 kts | 33° |
| 2026-05-07 12:45 | 3.75088 | 36.04496 | 34788 ft | 492 kts | 33° |
| 2026-05-07 12:46 | 3.80771 | 36.08318 | 34785 ft | 492 kts | 33° |
| 2026-05-07 12:46 | 3.86451 | 36.12138 | 34785 ft | 492 kts | 33° |
| 2026-05-07 12:47 | 3.92089 | 36.15932 | 34788 ft | 492 kts | 33° |
| 2026-05-07 12:47 | 3.97772 | 36.19755 | 34788 ft | 492 kts | 33° |
| 2026-05-07 12:48 | 4.03451 | 36.23577 | 34790 ft | 492 kts | 33° |
| 2026-05-07 12:48 | 4.09139 | 36.27406 | 34786 ft | 493 kts | 33° |
| 2026-05-07 12:49 | 4.14828 | 36.31235 | 34789 ft | 493 kts | 33° |
| 2026-05-07 12:49 | 4.20521 | 36.35069 | 34789 ft | 494 kts | 33° |
| 2026-05-07 12:50 | 4.26223 | 36.38908 | 34796 ft | 494 kts | 33° |
| 2026-05-07 12:50 | 4.31926 | 36.42750 | 34800 ft | 494 kts | 33° |
| 2026-05-07 12:51 | 4.37636 | 36.46597 | 34798 ft | 494 kts | 33° |
| 2026-05-07 12:51 | 4.43340 | 36.50439 | 34808 ft | 494 kts | 33° |
| 2026-05-07 12:52 | 4.49038 | 36.54280 | 34802 ft | 494 kts | 33° |
| 2026-05-07 12:52 | 4.54739 | 36.58123 | 34809 ft | 493 kts | 33° |
| 2026-05-07 12:53 | 4.60435 | 36.61963 | 34810 ft | 493 kts | 33° |
| 2026-05-07 12:53 | 4.66131 | 36.65805 | 34815 ft | 493 kts | 32° |
| 2026-05-07 12:54 | 4.71827 | 36.69646 | 34812 ft | 493 kts | 33° |
| 2026-05-07 12:54 | 4.77521 | 36.73487 | 34823 ft | 493 kts | 33° |
| 2026-05-07 12:55 | 4.83214 | 36.77329 | 34822 ft | 493 kts | 33° |
| 2026-05-07 12:55 | 4.88907 | 36.81171 | 34827 ft | 493 kts | 33° |
| 2026-05-07 12:56 | 4.94599 | 36.85013 | 34833 ft | 493 kts | 33° |
| 2026-05-07 12:56 | 5.00291 | 36.88856 | 34840 ft | 493 kts | 33° |
| 2026-05-07 12:57 | 5.05978 | 36.92696 | 34841 ft | 493 kts | 33° |
| 2026-05-07 12:57 | 5.11661 | 36.96535 | 34850 ft | 492 kts | 33° |
| 2026-05-07 12:58 | 5.17304 | 37.00348 | 34851 ft | 492 kts | 33° |
| 2026-05-07 12:58 | 5.22980 | 37.04183 | 34858 ft | 491 kts | 33° |
| 2026-05-07 12:59 | 5.28644 | 37.08011 | 34857 ft | 491 kts | 33° |
| 2026-05-07 12:59 | 5.34301 | 37.11836 | 34856 ft | 490 kts | 33° |
| 2026-05-07 13:00 | 5.39949 | 37.15655 | 34869 ft | 489 kts | 33° |
| 2026-05-07 13:00 | 5.45594 | 37.19473 | 34868 ft | 489 kts | 33° |
| 2026-05-07 13:01 | 5.51232 | 37.23287 | 34880 ft | 488 kts | 33° |
| 2026-05-07 13:01 | 5.56871 | 37.27103 | 34869 ft | 489 kts | 33° |
| 2026-05-07 13:02 | 5.62512 | 37.30921 | 34884 ft | 489 kts | 33° |
| 2026-05-07 13:02 | 5.68159 | 37.34744 | 34891 ft | 490 kts | 33° |
| 2026-05-07 13:03 | 5.73810 | 37.38571 | 34899 ft | 490 kts | 33° |
| 2026-05-07 13:03 | 5.79461 | 37.42399 | 34903 ft | 490 kts | 33° |
| 2026-05-07 13:04 | 5.85119 | 37.46232 | 34914 ft | 491 kts | 33° |
| 2026-05-07 13:04 | 5.90787 | 37.50073 | 34919 ft | 492 kts | 33° |
| 2026-05-07 13:05 | 5.96466 | 37.53924 | 34905 ft | 493 kts | 33° |
| 2026-05-07 13:05 | 6.02152 | 37.57780 | 34921 ft | 493 kts | 33° |
| 2026-05-07 13:06 | 6.07940 | 37.61482 | 34905 ft | 493 kts | 28° |
| 2026-05-07 13:06 | 6.13957 | 37.64679 | 34906 ft | 492 kts | 27° |
| 2026-05-07 13:07 | 6.20068 | 37.67883 | 34904 ft | 492 kts | 27° |
| 2026-05-07 13:07 | 6.26080 | 37.71067 | 34900 ft | 491 kts | 27° |
| 2026-05-07 13:08 | 6.32109 | 37.74284 | 34894 ft | 490 kts | 27° |
| 2026-05-07 13:08 | 6.38139 | 37.77509 | 34881 ft | 491 kts | 27° |
| 2026-05-07 13:09 | 6.44185 | 37.80740 | 34883 ft | 492 kts | 27° |
| 2026-05-07 13:09 | 6.50232 | 37.83972 | 34871 ft | 493 kts | 26° |
| 2026-05-07 13:10 | 6.56293 | 37.87212 | 34870 ft | 493 kts | 27° |
| 2026-05-07 13:10 | 6.62355 | 37.90454 | 34862 ft | 494 kts | 27° |
| 2026-05-07 13:11 | 6.68423 | 37.93699 | 34869 ft | 494 kts | 27° |
| 2026-05-07 13:11 | 6.74498 | 37.96949 | 34860 ft | 494 kts | 27° |
| 2026-05-07 13:12 | 6.80567 | 38.00198 | 34870 ft | 494 kts | 27° |
| 2026-05-07 13:12 | 6.86637 | 38.03447 | 34868 ft | 494 kts | 27° |
| 2026-05-07 13:13 | 6.92716 | 38.06703 | 34870 ft | 495 kts | 27° |
| 2026-05-07 13:13 | 6.98791 | 38.09958 | 34866 ft | 495 kts | 27° |
| 2026-05-07 13:14 | 7.04863 | 38.13211 | 34874 ft | 494 kts | 27° |
| 2026-05-07 13:14 | 7.10938 | 38.16467 | 34871 ft | 494 kts | 27° |
| 2026-05-07 13:15 | 7.17013 | 38.19724 | 34867 ft | 495 kts | 27° |
| 2026-05-07 13:15 | 7.23042 | 38.22958 | 34869 ft | 495 kts | 27° |
| 2026-05-07 13:16 | 7.29120 | 38.26219 | 34857 ft | 495 kts | 27° |
| 2026-05-07 13:16 | 7.35129 | 38.29445 | 34839 ft | 479 kts | 27° |
| 2026-05-07 13:17 | 7.38036 | 38.31006 | 34719 ft | 470 kts | 27° |
| 2026-05-07 13:17 | 7.40912 | 38.32550 | 34250 ft | 467 kts | 26° |
| 2026-05-07 13:17 | 7.43768 | 38.34083 | 33836 ft | 464 kts | 27° |
| 2026-05-07 13:17 | 7.46608 | 38.35608 | 33317 ft | 461 kts | 27° |
| 2026-05-07 13:18 | 7.49478 | 38.36999 | 32831 ft | 455 kts | 18° |
| 2026-05-07 13:18 | 7.52481 | 38.37965 | 32390 ft | 451 kts | 14° |
| 2026-05-07 13:18 | 7.55497 | 38.38777 | 31937 ft | 447 kts | 13° |
| 2026-05-07 13:18 | 7.58505 | 38.39555 | 31484 ft | 444 kts | 13° |
| 2026-05-07 13:19 | 7.61485 | 38.40344 | 31057 ft | 442 kts | 14° |
| 2026-05-07 13:19 | 7.64443 | 38.41155 | 30601 ft | 440 kts | 15° |
| 2026-05-07 13:19 | 7.67385 | 38.41986 | 30154 ft | 438 kts | 15° |
| 2026-05-07 13:19 | 7.70309 | 38.42826 | 29661 ft | 436 kts | 16° |
| 2026-05-07 13:20 | 7.73218 | 38.43669 | 29181 ft | 434 kts | 16° |
| 2026-05-07 13:20 | 7.76112 | 38.44510 | 28702 ft | 431 kts | 16° |
| 2026-05-07 13:20 | 7.78984 | 38.45344 | 28248 ft | 428 kts | 16° |
| 2026-05-07 13:20 | 7.81836 | 38.46171 | 27787 ft | 425 kts | 16° |
| 2026-05-07 13:21 | 7.84676 | 38.46994 | 27358 ft | 423 kts | 16° |
| 2026-05-07 13:21 | 7.87490 | 38.47809 | 26905 ft | 420 kts | 16° |
| 2026-05-07 13:21 | 7.90293 | 38.48621 | 26459 ft | 418 kts | 16° |
| 2026-05-07 13:21 | 7.93080 | 38.49429 | 26012 ft | 415 kts | 16° |
| 2026-05-07 13:22 | 7.95853 | 38.50232 | 25584 ft | 413 kts | 16° |
| 2026-05-07 13:22 | 7.98609 | 38.51031 | 25132 ft | 412 kts | 16° |
| 2026-05-07 13:22 | 8.01362 | 38.51811 | 24690 ft | 410 kts | 13° |
| 2026-05-07 13:22 | 8.04174 | 38.52212 | 24247 ft | 408 kts | 4° |
| 2026-05-07 13:23 | 8.07002 | 38.52323 | 23817 ft | 406 kts | 2° |
| 2026-05-07 13:23 | 8.09827 | 38.52393 | 23378 ft | 405 kts | 2° |
| 2026-05-07 13:23 | 8.12639 | 38.52474 | 22873 ft | 404 kts | 3° |
| 2026-05-07 13:23 | 8.15401 | 38.52577 | 22424 ft | 401 kts | 3° |
| 2026-05-07 13:24 | 8.18176 | 38.52698 | 21985 ft | 398 kts | 4° |
| 2026-05-07 13:24 | 8.20932 | 38.52829 | 21565 ft | 395 kts | 4° |
| 2026-05-07 13:24 | 8.23666 | 38.52967 | 21136 ft | 392 kts | 4° |
| 2026-05-07 13:24 | 8.26380 | 38.53103 | 20723 ft | 389 kts | 4° |
| 2026-05-07 13:25 | 8.29081 | 38.53240 | 20302 ft | 387 kts | 5° |
| 2026-05-07 13:25 | 8.31764 | 38.53375 | 19884 ft | 385 kts | 5° |
| 2026-05-07 13:25 | 8.34438 | 38.53509 | 19471 ft | 384 kts | 5° |
| 2026-05-07 13:25 | 8.37099 | 38.53644 | 19038 ft | 383 kts | 6° |
| 2026-05-07 13:26 | 8.39753 | 38.53778 | 18617 ft | 382 kts | 5° |
| 2026-05-07 13:26 | 8.42407 | 38.53909 | 18189 ft | 381 kts | 5° |
| 2026-05-07 13:26 | 8.45051 | 38.54041 | 17711 ft | 380 kts | 6° |
| 2026-05-07 13:26 | 8.47687 | 38.54172 | 17264 ft | 378 kts | 6° |
| 2026-05-07 13:27 | 8.50310 | 38.54305 | 16840 ft | 376 kts | 6° |
| 2026-05-07 13:27 | 8.52919 | 38.54437 | 16410 ft | 374 kts | 5° |
| 2026-05-07 13:27 | 8.55512 | 38.54567 | 15993 ft | 372 kts | 7° |
| 2026-05-07 13:27 | 8.58090 | 38.54696 | 15589 ft | 370 kts | 7° |
| 2026-05-07 13:28 | 8.60667 | 38.54825 | 15054 ft | 372 kts | 6° |
| 2026-05-07 13:28 | 8.63228 | 38.54953 | 14843 ft | 363 kts | 7° |
| 2026-05-07 13:28 | 8.65713 | 38.55080 | 14670 ft | 350 kts | 7° |
| 2026-05-07 13:28 | 8.68060 | 38.55195 | 14555 ft | 326 kts | 7° |
| 2026-05-07 13:29 | 8.70257 | 38.55303 | 14418 ft | 306 kts | 7° |
| 2026-05-07 13:29 | 8.72312 | 38.55414 | 14278 ft | 285 kts | 12° |
| 2026-05-07 13:29 | 8.74100 | 38.55914 | 14121 ft | 254 kts | 27° |
| 2026-05-07 13:29 | 8.75670 | 38.56614 | 13806 ft | 243 kts | 26° |
| 2026-05-07 13:30 | 8.76687 | 38.57055 | 13626 ft | 236 kts | 26° |
| 2026-05-07 13:30 | 8.78170 | 38.57690 | 13413 ft | 226 kts | 28° |
| 2026-05-07 13:30 | 8.79565 | 38.58283 | 13354 ft | 207 kts | 28° |
| 2026-05-07 13:30 | 8.81192 | 38.59121 | 12922 ft | 196 kts | 31° |
| 2026-05-07 13:31 | 8.82417 | 38.59768 | 12267 ft | 203 kts | 32° |
| 2026-05-07 13:31 | 8.83273 | 38.60233 | 11861 ft | 207 kts | 33° |
| 2026-05-07 13:31 | 8.84928 | 38.61084 | 11520 ft | 201 kts | 31° |
| 2026-05-07 13:31 | 8.85782 | 38.61502 | 11331 ft | 202 kts | 30° |
| 2026-05-07 13:32 | 8.87044 | 38.62092 | 11176 ft | 196 kts | 29° |
| 2026-05-07 13:32 | 8.88304 | 38.62644 | 11178 ft | 202 kts | 27° |
| 2026-05-07 13:32 | 8.89557 | 38.63298 | 11218 ft | 206 kts | 39° |
| 2026-05-07 13:32 | 8.90622 | 38.64267 | 11108 ft | 207 kts | 50° |
| 2026-05-07 13:33 | 8.91529 | 38.65371 | 10913 ft | 202 kts | 54° |
| 2026-05-07 13:33 | 8.92346 | 38.66518 | 10472 ft | 199 kts | 58° |
| 2026-05-07 13:33 | 8.93113 | 38.67653 | 10023 ft | 191 kts | 58° |
| 2026-05-07 13:33 | 8.93784 | 38.68728 | 9681 ft | 169 kts | 60° |
| 2026-05-07 13:34 | 8.94381 | 38.69741 | 9408 ft | 168 kts | 63° |
| 2026-05-07 13:34 | 8.95377 | 38.71818 | 8965 ft | 161 kts | 68° |
| 2026-05-07 13:34 | 8.95801 | 38.72866 | 8715 ft | 160 kts | 71° |
| 2026-05-07 13:35 | 8.96151 | 38.73917 | 8549 ft | 157 kts | 74° |
| 2026-05-07 13:35 | 8.96426 | 38.74966 | 8273 ft | 154 kts | 75° |
| 2026-05-07 13:35 | 8.96735 | 38.76016 | 8055 ft | 161 kts | 76° |
| 2026-05-07 13:35 | 8.97082 | 38.77123 | 7884 ft | 168 kts | 75° |
| 2026-05-07 13:36 | 8.97411 | 38.78262 | 7684 ft | 168 kts | 75° |
| 2026-05-07 13:36 | 8.97730 | 38.79364 | 7622 ft | 153 kts | 73° |
| 2026-05-07 13:36 | 8.97976 | 38.80216 | 7633 ft | 100 kts | 73° |
| 2026-05-07 13:36 | 8.98133 | 38.80747 | 7633 ft | 64 kts | 73° |
| 2026-05-07 13:37 | 8.98223 | 38.81049 | 7639 ft | 39 kts | 74° |
| 2026-05-07 13:37 | 8.98266 | 38.81199 | 7636 ft | 8 kts | 65° |
| 2026-05-07 13:37 | 8.98300 | 38.81200 | 7637 ft | 6 kts | 347° |
| 2026-05-07 13:37 | 8.98355 | 38.81186 | 7636 ft | 11 kts | 346° |
| 2026-05-07 13:38 | 8.98406 | 38.81170 | 7638 ft | 0 kts | 333° |
| 2026-05-07 13:38 | 8.98419 | 38.81155 | 7635 ft | 5 kts | 295° |
| 2026-05-07 13:38 | 8.98407 | 38.81107 | 7634 ft | 10 kts | 254° |
| 2026-05-07 13:38 | 8.98383 | 38.81020 | 7634 ft | 14 kts | 254° |
| 2026-05-07 13:39 | 8.98354 | 38.80918 | 7633 ft | 17 kts | 254° |
| 2026-05-07 13:39 | 8.98317 | 38.80785 | 7633 ft | 23 kts | 254° |
| 2026-05-07 13:39 | 8.98286 | 38.80680 | 7632 ft | 12 kts | 253° |
| 2026-05-07 13:39 | 8.98257 | 38.80583 | 7632 ft | 17 kts | 253° |
| 2026-05-07 13:40 | 8.98230 | 38.80494 | 7632 ft | 12 kts | 252° |
| 2026-05-07 13:40 | 8.98202 | 38.80404 | 7631 ft | 3 kts | 252° |
| 2026-05-07 13:40 | 8.98201 | 38.80403 | 7631 ft | 2 kts | 252° |
| 2026-05-07 13:41 | 8.98191 | 38.80370 | 7631 ft | 8 kts | 252° |
| 2026-05-07 13:41 | 8.98171 | 38.80306 | 7631 ft | 10 kts | 255° |
| 2026-05-07 13:41 | 8.98212 | 38.80243 | 7630 ft | 13 kts | 313° |
| 2026-05-07 13:41 | 8.98264 | 38.80150 | 7629 ft | 18 kts | 262° |
| 2026-05-07 13:42 | 8.98235 | 38.80028 | 7629 ft | 15 kts | 250° |
| 2026-05-07 13:42 | 8.98194 | 38.79932 | 7629 ft | 11 kts | 255° |
| 2026-05-07 13:42 | 8.98213 | 38.79847 | 7628 ft | 12 kts | 277° |
| 2026-05-07 13:42 | 8.98194 | 38.79762 | 7628 ft | 15 kts | 254° |
| 2026-05-07 13:43 | 8.98160 | 38.79645 | 7628 ft | 20 kts | 253° |
| 2026-05-07 13:43 | 8.98115 | 38.79491 | 7627 ft | 26 kts | 253° |
| 2026-05-07 13:43 | 8.98060 | 38.79302 | 7627 ft | 31 kts | 255° |
| 2026-05-07 13:43 | 8.98014 | 38.79117 | 7626 ft | 25 kts | 252° |
| 2026-05-07 13:44 | 8.97957 | 38.78935 | 7626 ft | 29 kts | 252° |
| 2026-05-07 13:44 | 8.97915 | 38.78802 | 7625 ft | 17 kts | 251° |
| 2026-05-07 13:44 | 8.97864 | 38.78736 | 7625 ft | 11 kts | 166° |
| 2026-05-07 13:44 | 8.97789 | 38.78711 | 7624 ft | 15 kts | 243° |
| 2026-05-07 13:45 | 8.97753 | 38.78604 | 7624 ft | 18 kts | 253° |
| 2026-05-07 13:45 | 8.97752 | 38.78503 | 7627 ft | 9 kts | 313° |
| 2026-05-07 13:45 | 8.97804 | 38.78462 | 7624 ft | 12 kts | 311° |
| 2026-05-07 13:45 | 8.97851 | 38.78441 | 7625 ft | 2 kts | 342° |
| 2026-05-07 13:46 | 8.97880 | 38.78432 | 7625 ft | 1 kts | 345° |